Time;durP1;ratioP1;P1;durP2;ratioP2;P2;SDS_P1;SDS_P2;PMS_P1;PMS_P2;Temp;Humidity;BMP_temperature;BMP_pressure;BME280_temperature;BME280_humidity;BME280_pressure;Samples;Min_cycle;Max_cycle;Signal;HPM_P1;HPM_P2
2024/03/18 00:01:02;;;;;;;;;;;11.40;8.10;;;;;;5063327;28;19921;-85
2024/03/18 00:03:28;;;;;;;;;;;11.30;10.70;;;;;;5063084;28;19923;-86
2024/03/18 00:05:54;;;;;;;;;;;11.30;16.10;;;;;;5048124;28;19917;-87
2024/03/18 00:08:20;;;;;;;;;;;11.30;20.00;;;;;;5059617;28;19927;-86
2024/03/18 00:10:46;;;;;;;;;;;11.20;24.50;;;;;;5064162;28;19980;-86
2024/03/18 00:13:11;;;;;;;;;;;11.20;28.10;;;;;;5063717;28;19924;-86
2024/03/18 00:15:37;;;;;;;;;;;11.20;29.40;;;;;;5059761;28;19992;-87
2024/03/18 00:18:03;;;;;;;;;;;11.20;33.20;;;;;;5056820;28;20008;-85
2024/03/18 00:20:28;;;;;;;;;;;11.20;39.80;;;;;;5053713;28;19932;-87
2024/03/18 00:22:56;;;;;;;;;;;11.20;42.10;;;;;;5042944;28;19946;-87
2024/03/18 00:25:22;;;;;;;;;;;11.20;47.00;;;;;;5056454;28;19925;-85
2024/03/18 00:27:47;;;;;;;;;;;11.20;45.30;;;;;;5050239;28;19955;-85
2024/03/18 00:30:14;;;;;;;;;;;11.30;45.70;;;;;;5034332;28;19967;-85
2024/03/18 00:32:40;;;;;;;;;;;11.30;43.70;;;;;;5051773;28;19920;-85
2024/03/18 00:35:06;;;;;;;;;;;11.30;39.20;;;;;;5053292;28;19959;-85
2024/03/18 00:37:31;;;;;;;;;;;11.40;41.50;;;;;;5036978;28;20019;-85
2024/03/18 00:39:59;;;;;;;;;;;11.40;38.30;;;;;;5034940;28;20331;-84
2024/03/18 00:42:25;;;;;;;;;;;11.40;36.60;;;;;;5041830;28;19913;-85
2024/03/18 00:44:51;;;;;;;;;;;11.40;32.90;;;;;;5050145;28;20389;-85
2024/03/18 00:47:16;;;;;;;;;;;11.30;33.90;;;;;;5047213;28;19968;-85
2024/03/18 00:49:42;;;;;;;;;;;11.30;41.70;;;;;;5047664;28;20337;-85
2024/03/18 00:52:08;;;;;;;;;;;11.30;43.10;;;;;;5055841;28;20012;-83
2024/03/18 00:54:35;;;;;;;;;;;11.30;44.20;;;;;;5055494;28;19917;-86
2024/03/18 00:57:01;;;;;;;;;;;11.30;46.20;;;;;;5048357;28;19925;-85
2024/03/18 00:59:34;;;;;;;;;;;11.40;48.40;;;;;;5045779;28;19967;-85
2024/03/18 01:02:02;;;;;;;;;;;11.40;45.00;;;;;;5056396;28;19924;-85
2024/03/18 01:04:28;;;;;;;;;;;11.30;40.50;;;;;;5061127;28;19980;-86
2024/03/18 01:06:58;;;;;;;;;;;11.30;45.80;;;;;;5052612;28;19958;-84
2024/03/18 01:09:23;;;;;;;;;;;11.30;48.40;;;;;;5046035;28;19966;-84
2024/03/18 01:11:49;;;;;;;;;;;11.30;48.40;;;;;;5053648;28;20341;-86
2024/03/18 01:14:14;;;;;;;;;;;11.20;50.40;;;;;;5041653;28;20373;-84
2024/03/18 01:16:41;;;;;;;;;;;11.20;53.30;;;;;;5033409;28;19917;-85
2024/03/18 01:19:06;;;;;;;;;;;11.20;59.10;;;;;;5044674;28;19912;-85
2024/03/18 01:21:32;;;;;;;;;;;11.20;61.40;;;;;;5053047;28;19917;-86
2024/03/18 01:23:58;;;;;;;;;;;11.20;60.60;;;;;;5059234;28;19925;-87
2024/03/18 01:26:23;;;;;;;;;;;11.10;64.30;;;;;;5058847;28;19919;-87
2024/03/18 01:28:49;;;;;;;;;;;11.10;69.50;;;;;;5061791;28;19921;-86
2024/03/18 01:31:14;;;;;;;;;;;11.10;78.10;;;;;;5036567;28;19912;-86
2024/03/18 01:33:40;;;;;;;;;;;11.10;84.80;;;;;;5061682;28;20007;-86
2024/03/18 01:36:06;;;;;;;;;;;11.10;89.40;;;;;;5044629;28;19942;-85
2024/03/18 01:38:31;;;;;;;;;;;11.20;89.80;;;;;;5056446;28;19924;-85
2024/03/18 01:40:57;;;;;;;;;;;11.20;84.40;;;;;;5045977;28;19925;-86
2024/03/18 01:43:23;;;;;;;;;;;11.20;82.90;;;;;;5048378;28;20366;-86
2024/03/18 01:45:48;;;;;;;;;;;11.20;89.30;;;;;;5043310;28;19913;-85
2024/03/18 01:48:14;;;;;;;;;;;11.20;91.20;;;;;;5043892;28;20292;-85
2024/03/18 01:50:41;;;;;;;;;;;11.30;90.80;;;;;;5042257;28;20127;-86
2024/03/18 01:53:08;;;;;;;;;;;11.40;84.80;;;;;;5050997;28;19923;-86
2024/03/18 01:55:33;;;;;;;;;;;11.40;75.60;;;;;;5038122;28;19924;-86
2024/03/18 01:57:59;;;;;;;;;;;11.40;76.50;;;;;;5049946;28;20296;-86
2024/03/18 02:00:32;;;;;;;;;;;11.40;76.60;;;;;;5057358;28;19917;-86
2024/03/18 02:03:01;;;;;;;;;;;11.40;70.30;;;;;;5047173;28;19913;-86
2024/03/18 02:05:27;;;;;;;;;;;11.40;62.00;;;;;;5052597;28;19991;-85
2024/03/18 02:07:52;;;;;;;;;;;11.30;59.70;;;;;;5041216;28;19915;-85
2024/03/18 02:10:19;;;;;;;;;;;11.30;64.60;;;;;;5044809;28;21585;-86
2024/03/18 02:12:44;;;;;;;;;;;11.20;67.90;;;;;;5031416;28;19936;-85
2024/03/18 02:15:11;;;;;;;;;;;11.20;68.60;;;;;;5049763;28;19974;-85
2024/03/18 02:17:37;;;;;;;;;;;11.20;69.50;;;;;;5046884;28;19951;-85
2024/03/18 02:20:02;;;;;;;;;;;11.20;73.10;;;;;;5050153;28;19920;-85
2024/03/18 02:22:28;;;;;;;;;;;11.20;74.60;;;;;;5047950;28;19917;-85
2024/03/18 02:24:53;;;;;;;;;;;11.10;74.00;;;;;;5049279;28;19957;-85
2024/03/18 02:27:19;;;;;;;;;;;11.10;73.90;;;;;;5046926;28;19917;-86
2024/03/18 02:29:44;;;;;;;;;;;11.10;75.80;;;;;;5047207;28;19913;-86
2024/03/18 02:32:10;;;;;;;;;;;11.10;81.70;;;;;;5063512;28;19917;-85
2024/03/18 02:34:36;;;;;;;;;;;11.00;82.30;;;;;;5057405;28;19923;-85
2024/03/18 02:37:02;;;;;;;;;;;11.00;83.90;;;;;;5057744;28;19917;-86
2024/03/18 02:41:55;;;;;;;;;;;11.00;90.20;;;;;;5060017;28;19932;-84
2024/03/18 02:44:21;;;;;;;;;;;11.00;90.30;;;;;;5057782;28;19919;-84
2024/03/18 02:46:47;;;;;;;;;;;11.00;91.10;;;;;;5062373;28;20389;-83
2024/03/18 02:49:12;;;;;;;;;;;11.00;91.50;;;;;;5046053;28;20526;-85
2024/03/18 02:51:38;;;;;;;;;;;11.00;90.70;;;;;;5058461;28;19912;-84
2024/03/18 02:54:04;;;;;;;;;;;11.00;91.00;;;;;;5052491;28;20851;-85
2024/03/18 02:56:30;;;;;;;;;;;10.90;92.40;;;;;;5040243;28;20054;-85
2024/03/18 02:58:55;;;;;;;;;;;10.90;93.40;;;;;;5060605;28;20398;-84
2024/03/18 03:01:24;;;;;;;;;;;10.90;95.90;;;;;;5060268;28;19912;-85
2024/03/18 03:03:54;;;;;;;;;;;10.90;96.60;;;;;;5066540;28;20029;-84
2024/03/18 03:06:19;;;;;;;;;;;11.00;97.50;;;;;;5047671;28;19987;-84
2024/03/18 03:08:46;;;;;;;;;;;11.00;94.90;;;;;;5062073;28;19924;-85
2024/03/18 03:11:11;;;;;;;;;;;10.90;94.50;;;;;;5046477;28;19994;-85
2024/03/18 03:13:37;;;;;;;;;;;10.90;94.30;;;;;;5062846;28;19982;-84
2024/03/18 03:16:02;;;;;;;;;;;10.90;94.90;;;;;;5065052;28;20452;-83
2024/03/18 03:18:28;;;;;;;;;;;10.90;95.50;;;;;;5048414;28;19912;-84
2024/03/18 03:20:54;;;;;;;;;;;10.90;95.90;;;;;;5047173;28;19913;-84
2024/03/18 03:23:20;;;;;;;;;;;10.90;96.10;;;;;;5054612;28;19916;-84
2024/03/18 03:25:48;;;;;;;;;;;10.90;95.20;;;;;;5055800;28;19936;-84
2024/03/18 03:28:14;;;;;;;;;;;10.90;93.90;;;;;;5055878;28;19912;-84
2024/03/18 03:30:39;;;;;;;;;;;10.90;93.20;;;;;;5053718;28;20418;-84
2024/03/18 03:33:05;;;;;;;;;;;10.90;93.40;;;;;;5065603;28;19925;-85
2024/03/18 03:35:31;;;;;;;;;;;10.80;95.00;;;;;;5046195;28;20392;-84
2024/03/18 03:37:56;;;;;;;;;;;10.80;96.00;;;;;;5063262;28;20003;-84
2024/03/18 03:40:22;;;;;;;;;;;10.90;95.60;;;;;;5056239;28;19925;-84
2024/03/18 03:42:47;;;;;;;;;;;10.80;95.50;;;;;;5062146;28;19991;-85
2024/03/18 03:45:12;;;;;;;;;;;10.80;97.20;;;;;;5040354;28;19912;-84
2024/03/18 03:47:39;;;;;;;;;;;10.80;99.20;;;;;;5059978;28;19939;-85
2024/03/18 03:50:08;;;;;;;;;;;10.90;99.90;;;;;;5067585;28;19964;-85
2024/03/18 03:52:34;;;;;;;;;;;10.90;99.90;;;;;;5068102;28;20016;-85
2024/03/18 03:54:59;;;;;;;;;;;11.00;98.60;;;;;;5063992;28;20015;-85
2024/03/18 03:57:25;;;;;;;;;;;11.00;95.30;;;;;;5058487;28;19958;-85
2024/03/18 03:59:50;;;;;;;;;;;11.00;94.30;;;;;;5044518;28;19931;-84
2024/03/18 04:02:17;;;;;;;;;;;11.00;92.90;;;;;;5044998;28;19913;-85
2024/03/18 04:04:43;;;;;;;;;;;11.10;91.80;;;;;;5064295;28;19955;-85
2024/03/18 04:07:08;;;;;;;;;;;11.10;91.90;;;;;;5062018;28;19955;-85
2024/03/18 04:09:34;;;;;;;;;;;11.10;85.20;;;;;;5036001;28;19923;-84
2024/03/18 04:11:59;;;;;;;;;;;11.10;77.90;;;;;;5045355;28;19921;-84
2024/03/18 04:14:25;;;;;;;;;;;11.00;71.50;;;;;;5032508;28;20279;-85
2024/03/18 04:16:50;;;;;;;;;;;11.00;65.50;;;;;;5036737;28;19923;-84
2024/03/18 04:19:15;;;;;;;;;;;10.90;62.10;;;;;;5044081;28;20537;-84
2024/03/18 04:21:41;;;;;;;;;;;10.80;62.90;;;;;;5047339;28;19913;-84
2024/03/18 04:24:10;;;;;;;;;;;10.80;65.10;;;;;;5059566;28;20007;-85
2024/03/18 04:26:36;;;;;;;;;;;10.70;68.60;;;;;;5067989;28;20290;-85
2024/03/18 04:29:03;;;;;;;;;;;10.60;69.90;;;;;;5047107;28;19913;-84
2024/03/18 04:31:29;;;;;;;;;;;10.60;71.70;;;;;;5056986;28;19932;-84
2024/03/18 04:33:54;;;;;;;;;;;10.60;73.50;;;;;;5041807;28;20383;-84
2024/03/18 04:36:20;;;;;;;;;;;10.50;77.20;;;;;;5053822;28;19929;-84
2024/03/18 04:38:46;;;;;;;;;;;10.50;84.30;;;;;;5046122;28;19912;-83
2024/03/18 04:41:12;;;;;;;;;;;10.50;88.30;;;;;;5058030;28;20046;-85
2024/03/18 04:43:38;;;;;;;;;;;10.40;90.60;;;;;;5061104;28;20004;-85
2024/03/18 04:46:04;;;;;;;;;;;10.40;91.20;;;;;;5064385;28;19917;-85
2024/03/18 04:48:29;;;;;;;;;;;10.40;91.10;;;;;;5063231;28;19924;-84
2024/03/18 04:50:55;;;;;;;;;;;10.40;91.80;;;;;;5062871;28;19927;-85
2024/03/18 04:53:20;;;;;;;;;;;10.50;92.00;;;;;;5047118;28;19913;-85
2024/03/18 04:55:46;;;;;;;;;;;10.50;90.10;;;;;;5063915;28;19935;-85
2024/03/18 04:58:12;;;;;;;;;;;10.50;83.90;;;;;;5064418;28;19912;-85
2024/03/18 05:00:37;;;;;;;;;;;10.50;81.40;;;;;;5063071;28;20183;-84
2024/03/18 05:03:03;;;;;;;;;;;10.50;80.50;;;;;;5061901;28;20010;-84
2024/03/18 05:05:28;;;;;;;;;;;10.50;81.40;;;;;;5045791;28;19913;-85
2024/03/18 05:07:54;;;;;;;;;;;10.50;84.30;;;;;;5060677;28;19952;-85
2024/03/18 05:10:23;;;;;;;;;;;10.50;85.80;;;;;;5052601;28;19950;-83
2024/03/18 05:12:49;;;;;;;;;;;10.50;80.30;;;;;;5053117;28;19944;-85
2024/03/18 05:15:14;;;;;;;;;;;10.50;79.90;;;;;;5059729;28;19964;-84
2024/03/18 05:17:40;;;;;;;;;;;10.60;80.90;;;;;;5038682;28;19928;-83
2024/03/18 05:20:11;;;;;;;;;;;10.50;80.40;;;;;;5054667;28;20380;-83
2024/03/18 05:22:37;;;;;;;;;;;10.50;71.80;;;;;;5059156;28;20000;-84
2024/03/18 05:25:06;;;;;;;;;;;10.50;65.20;;;;;;5054108;28;19962;-83
2024/03/18 05:27:31;;;;;;;;;;;10.40;69.20;;;;;;5057816;28;19912;-84
2024/03/18 05:29:57;;;;;;;;;;;10.50;76.20;;;;;;5043486;28;20069;-84
2024/03/18 05:32:22;;;;;;;;;;;10.50;78.20;;;;;;5059849;28;19928;-84
2024/03/18 05:34:49;;;;;;;;;;;10.50;73.90;;;;;;5042608;28;19920;-83
2024/03/18 05:37:14;;;;;;;;;;;10.60;70.90;;;;;;5058737;28;20015;-84
2024/03/18 05:39:40;;;;;;;;;;;10.60;69.70;;;;;;5062784;28;19924;-85
2024/03/18 05:42:06;;;;;;;;;;;10.60;68.10;;;;;;5044404;28;19920;-84
2024/03/18 05:44:32;;;;;;;;;;;10.60;64.40;;;;;;5059224;28;19913;-84
2024/03/18 05:46:57;;;;;;;;;;;10.70;64.60;;;;;;5063352;28;19913;-84
2024/03/18 05:49:23;;;;;;;;;;;10.70;64.10;;;;;;5044142;28;20347;-84
2024/03/18 05:51:48;;;;;;;;;;;10.70;63.00;;;;;;5058427;28;19920;-84
2024/03/18 05:54:15;;;;;;;;;;;10.80;64.90;;;;;;5054642;28;19951;-83
2024/03/18 05:56:40;;;;;;;;;;;10.80;62.20;;;;;;5042595;28;20410;-84
2024/03/18 05:59:06;;;;;;;;;;;10.80;59.80;;;;;;5057177;28;19909;-82
2024/03/18 06:01:31;;;;;;;;;;;10.90;58.20;;;;;;5037798;28;19912;-84
2024/03/18 06:03:57;;;;;;;;;;;10.90;56.20;;;;;;5060560;28;19913;-84
2024/03/18 06:06:22;;;;;;;;;;;10.90;53.10;;;;;;5063347;28;19947;-84
2024/03/18 06:08:48;;;;;;;;;;;11.00;51.20;;;;;;5046611;28;19954;-85
2024/03/18 06:11:13;;;;;;;;;;;11.00;49.90;;;;;;5038134;28;19919;-84
2024/03/18 06:13:39;;;;;;;;;;;11.00;49.50;;;;;;5052252;28;20389;-84
2024/03/18 06:16:04;;;;;;;;;;;11.00;48.00;;;;;;5058560;28;19922;-84
2024/03/18 06:18:30;;;;;;;;;;;11.10;44.40;;;;;;5057262;28;19916;-84
2024/03/18 06:20:56;;;;;;;;;;;11.10;40.20;;;;;;5037353;28;20283;-84
2024/03/18 06:23:25;;;;;;;;;;;11.10;36.80;;;;;;5056834;28;19915;-83
2024/03/18 06:25:59;;;;;;;;;;;11.20;33.60;;;;;;5057055;28;20143;-84
2024/03/18 06:28:25;;;;;;;;;;;11.20;30.50;;;;;;5036781;28;19963;-84
2024/03/18 06:30:51;;;;;;;;;;;11.20;28.80;;;;;;5044643;28;19917;-85
2024/03/18 06:33:17;;;;;;;;;;;11.30;27.90;;;;;;5063928;28;20358;-85
2024/03/18 06:35:45;;;;;;;;;;;11.30;25.90;;;;;;5035928;28;19920;-85
2024/03/18 06:38:11;;;;;;;;;;;11.40;22.50;;;;;;5070516;28;20243;-84
2024/03/18 06:40:36;;;;;;;;;;;11.50;18.40;;;;;;5066551;28;19916;-84
2024/03/18 06:43:02;;;;;;;;;;;11.60;15.00;;;;;;5067770;28;20348;-85
2024/03/18 06:45:28;;;;;;;;;;;11.60;11.80;;;;;;5039377;28;19960;-84
2024/03/18 06:47:53;;;;;;;;;;;11.70;7.60;;;;;;5066316;28;19920;-84
2024/03/18 06:50:20;;;;;;;;;;;11.80;4.70;;;;;;5062766;28;19912;-84
2024/03/18 06:52:45;;;;;;;;;;;11.90;3.40;;;;;;5060233;28;19913;-85
2024/03/18 06:55:11;;;;;;;;;;;12.00;1.00;;;;;;5060381;28;19920;-84
2024/03/18 06:57:36;;;;;;;;;;;12.20;1.00;;;;;;5068135;28;20290;-84
2024/03/18 07:00:06;;;;;;;;;;;12.40;1.00;;;;;;5046207;28;19920;-85
2024/03/18 07:02:32;;;;;;;;;;;12.70;1.00;;;;;;5061975;28;20382;-84
2024/03/18 07:04:57;;;;;;;;;;;12.90;1.00;;;;;;5045607;28;19912;-85
2024/03/18 07:07:23;;;;;;;;;;;13.10;1.00;;;;;;5047523;28;19999;-85
2024/03/18 07:09:52;;;;;;;;;;;13.30;1.00;;;;;;5068508;28;19936;-87
2024/03/18 07:12:18;;;;;;;;;;;13.50;1.00;;;;;;5063785;28;19913;-85
2024/03/18 07:14:44;;;;;;;;;;;13.60;1.00;;;;;;5065283;28;20310;-85
2024/03/18 07:17:09;;;;;;;;;;;13.80;1.00;;;;;;5061270;28;19923;-86
2024/03/18 07:19:35;;;;;;;;;;;14.00;1.00;;;;;;5062575;28;19932;-85
2024/03/18 07:22:01;;;;;;;;;;;14.20;1.00;;;;;;5064654;28;19935;-85
2024/03/18 07:24:27;;;;;;;;;;;14.50;1.00;;;;;;5063851;28;19999;-85
2024/03/18 07:26:53;;;;;;;;;;;14.70;1.00;;;;;;5065071;28;20020;-86
2024/03/18 07:29:19;;;;;;;;;;;14.90;99.90;;;;;;5048824;28;20011;-86
2024/03/18 07:31:45;;;;;;;;;;;15.00;99.90;;;;;;5064647;28;19978;-85
2024/03/18 07:34:10;;;;;;;;;;;15.10;99.90;;;;;;5047793;28;19997;-86
2024/03/18 07:36:36;;;;;;;;;;;15.20;99.90;;;;;;5063870;28;19947;-84
2024/03/18 07:39:04;;;;;;;;;;;15.20;99.90;;;;;;5063942;28;19913;-85
2024/03/18 07:41:30;;;;;;;;;;;15.20;99.90;;;;;;5048064;28;19920;-85
2024/03/18 07:43:56;;;;;;;;;;;15.30;99.90;;;;;;5060161;28;20276;-86
2024/03/18 07:46:22;;;;;;;;;;;15.20;99.90;;;;;;5063338;28;20301;-85
2024/03/18 07:48:48;;;;;;;;;;;15.20;99.90;;;;;;5063644;28;20352;-85
2024/03/18 07:51:14;;;;;;;;;;;15.40;99.90;;;;;;5061252;28;19916;-85
2024/03/18 07:53:39;;;;;;;;;;;15.60;99.90;;;;;;5061812;28;19962;-86
2024/03/18 07:56:04;;;;;;;;;;;15.80;1.00;;;;;;5040058;28;20347;-85
2024/03/18 07:58:30;;;;;;;;;;;16.10;1.00;;;;;;5044403;28;19916;-85
2024/03/18 08:00:55;;;;;;;;;;;16.30;99.90;;;;;;5064731;28;20354;-86
2024/03/18 08:03:22;;;;;;;;;;;16.40;99.90;;;;;;5060949;28;19913;-86
2024/03/18 08:05:49;;;;;;;;;;;16.60;1.00;;;;;;5046696;28;20361;-86
2024/03/18 08:08:14;;;;;;;;;;;16.80;1.00;;;;;;5045965;28;19927;-86
2024/03/18 08:10:40;;;;;;;;;;;17.00;40.90;;;;;;5062117;28;19912;-87
2024/03/18 08:13:05;;;;;;;;;;;17.30;1.00;;;;;;5067021;28;19920;-86
2024/03/18 08:15:31;;;;;;;;;;;17.50;99.90;;;;;;5047636;28;20457;-85
2024/03/18 08:17:56;;;;;;;;;;;17.60;43.90;;;;;;5063689;28;19913;-87
2024/03/18 08:20:22;;;;;;;;;;;17.70;1.00;;;;;;5047653;28;19912;-85
2024/03/18 08:22:48;;;;;;;;;;;18.00;99.90;;;;;;5059828;28;19966;-85
2024/03/18 08:25:13;;;;;;;;;;;18.00;1.00;;;;;;5064318;28;19919;-86
2024/03/18 08:27:39;;;;;;;;;;;18.50;1.00;;;;;;5048322;28;20020;-85
2024/03/18 08:30:05;;;;;;;;;;;18.90;99.90;;;;;;5068525;28;19912;-86
2024/03/18 08:32:31;;;;;;;;;;;19.10;99.90;;;;;;5048160;28;20289;-87
2024/03/18 08:34:56;;;;;;;;;;;19.50;99.90;;;;;;5069302;28;19979;-86
2024/03/18 08:37:22;;;;;;;;;;;20.20;24.40;;;;;;5041000;28;19927;-86
2024/03/18 08:39:47;;;;;;;;;;;20.90;1.00;;;;;;5060777;28;19923;-87
2024/03/18 08:43:48;;;;;;;;;;;21.80;1.00;;;;;;5064874;28;19923;-88
2024/03/18 08:46:13;;;;;;;;;;;23.30;1.00;;;;;;5044229;28;20008;-86
2024/03/18 08:48:39;;;;;;;;;;;26.30;1.00;;;;;;5044365;28;19968;-86
2024/03/18 08:51:05;;;;;;;;;;;27.40;99.90;;;;;;5050579;28;19931;-87
2024/03/18 08:53:31;;;;;;;;;;;26.50;99.90;;;;;;5050869;28;19917;-86
2024/03/18 08:55:56;;;;;;;;;;;25.30;99.90;;;;;;5039000;28;19917;-87
2024/03/18 08:58:21;;;;;;;;;;;24.00;99.90;;;;;;5037236;28;19913;-86
2024/03/18 09:00:48;;;;;;;;;;;22.80;99.90;;;;;;5043639;28;20341;-87
2024/03/18 09:03:14;;;;;;;;;;;21.90;99.90;;;;;;5039014;28;19918;-85
2024/03/18 09:05:39;;;;;;;;;;;21.30;99.90;;;;;;5043321;28;19925;-86
2024/03/18 09:08:05;;;;;;;;;;;20.90;99.90;;;;;;5046793;28;20438;-86
2024/03/18 09:10:31;;;;;;;;;;;20.50;99.90;;;;;;5042553;28;19914;-86
2024/03/18 09:12:56;;;;;;;;;;;20.20;99.90;;;;;;5048039;28;19913;-85
2024/03/18 09:15:28;;;;;;;;;;;19.70;99.90;;;;;;5040631;28;20280;-84
2024/03/18 09:17:53;;;;;;;;;;;19.10;1.00;;;;;;5049873;28;20007;-84
2024/03/18 09:20:19;;;;;;;;;;;18.60;1.00;;;;;;5038586;28;20043;-85
2024/03/18 09:22:45;;;;;;;;;;;18.10;1.00;;;;;;5048928;28;20008;-85
2024/03/18 09:25:11;;;;;;;;;;;17.80;1.00;;;;;;5040874;28;19913;-84
2024/03/18 09:27:37;;;;;;;;;;;17.40;1.00;;;;;;5042049;28;21569;-84
2024/03/18 09:30:03;;;;;;;;;;;17.10;99.90;;;;;;5043214;28;19963;-85
2024/03/18 09:32:29;;;;;;;;;;;17.10;99.90;;;;;;5044794;28;20016;-84
2024/03/18 09:34:54;;;;;;;;;;;17.30;99.90;;;;;;5050078;28;19944;-84
2024/03/18 09:37:20;;;;;;;;;;;17.70;99.90;;;;;;5049822;28;19913;-85
2024/03/18 09:39:45;;;;;;;;;;;19.80;1.00;;;;;;5047513;28;20298;-86
2024/03/18 09:42:11;;;;;;;;;;;22.70;1.00;;;;;;5051437;28;19917;-87
2024/03/18 09:44:36;;;;;;;;;;;23.90;99.90;;;;;;5057364;28;19923;-86
2024/03/18 09:47:03;;;;;;;;;;;23.90;99.90;;;;;;5066335;28;20393;-86
2024/03/18 09:49:30;;;;;;;;;;;24.20;99.90;;;;;;5061120;28;20007;-85
2024/03/18 09:51:58;;;;;;;;;;;23.70;99.90;;;;;;5075485;28;19917;-85
2024/03/18 09:54:23;;;;;;;;;;;22.70;99.90;;;;;;5059905;28;19913;-84
2024/03/18 09:56:58;;;;;;;;;;;21.80;99.90;;;;;;5055777;28;19917;-86
2024/03/18 09:59:26;;;;;;;;;;;21.00;99.90;;;;;;5063909;28;19912;-85
2024/03/18 10:01:51;;;;;;;;;;;20.40;99.90;;;;;;5033586;28;19917;-85
2024/03/18 10:04:18;;;;;;;;;;;20.00;99.90;;;;;;5043746;28;20272;-86
2024/03/18 10:06:45;;;;;;;;;;;19.60;99.90;;;;;;5053406;28;19913;-85
2024/03/18 10:09:11;;;;;;;;;;;19.10;99.90;;;;;;5045360;28;19913;-86
2024/03/18 10:11:36;;;;;;;;;;;18.70;99.90;;;;;;5055564;28;20376;-84
2024/03/18 10:14:02;;;;;;;;;;;18.30;99.90;;;;;;5047424;28;20339;-85
2024/03/18 10:16:27;;;;;;;;;;;18.10;1.00;;;;;;5056805;28;19912;-85
2024/03/18 10:18:53;;;;;;;;;;;19.00;1.00;;;;;;5050324;28;19915;-85
2024/03/18 10:21:19;;;;;;;;;;;19.10;99.90;;;;;;5058879;28;20396;-85
2024/03/18 10:23:53;;;;;;;;;;;19.60;99.90;;;;;;5053090;28;19913;-85
2024/03/18 10:26:19;;;;;;;;;;;19.90;99.90;;;;;;5025231;28;20347;-86
2024/03/18 10:28:45;;;;;;;;;;;19.80;99.90;;;;;;5039974;28;19920;-85
2024/03/18 10:31:17;;;;;;;;;;;19.70;99.90;;;;;;5065989;28;19909;-87
2024/03/18 10:33:47;;;;;;;;;;;19.90;99.90;;;;;;5055937;28;19920;-86
2024/03/18 10:36:17;;;;;;;;;;;19.90;99.90;;;;;;5027132;28;19909;-87
2024/03/18 10:38:43;;;;;;;;;;;21.00;99.90;;;;;;5045568;28;19967;-86
2024/03/18 10:41:12;;;;;;;;;;;23.40;99.90;;;;;;5059848;28;20382;-88
2024/03/18 10:43:40;;;;;;;;;;;25.60;99.90;;;;;;5073344;28;19916;-86
2024/03/18 10:46:05;;;;;;;;;;;26.80;99.90;;;;;;5052664;28;19999;-87
2024/03/18 10:48:31;;;;;;;;;;;27.30;99.90;;;;;;5066121;28;20001;-87
2024/03/18 10:50:58;;;;;;;;;;;26.90;99.90;;;;;;5047247;28;19908;-87
2024/03/18 10:53:27;;;;;;;;;;;27.60;99.90;;;;;;5058242;28;20290;-87
2024/03/18 10:55:52;;;;;;;;;;;27.80;99.90;;;;;;5019239;28;19919;-86
2024/03/18 10:58:36;;;;;;;;;;;27.10;99.90;;;;;;5030251;28;20373;-86
2024/03/18 11:01:02;;;;;;;;;;;26.30;99.90;;;;;;5036580;28;19908;-85
2024/03/18 11:03:28;;;;;;;;;;;26.10;99.90;;;;;;5054327;28;19909;-86
2024/03/18 11:05:55;;;;;;;;;;;26.40;99.90;;;;;;5043252;28;20014;-86
2024/03/18 11:08:27;;;;;;;;;;;27.50;99.90;;;;;;5045262;28;19967;-87
2024/03/18 11:10:54;;;;;;;;;;;28.70;99.90;;;;;;5033778;28;19912;-86
2024/03/18 11:13:20;;;;;;;;;;;29.80;99.90;;;;;;5060588;28;19946;-87
2024/03/18 11:15:46;;;;;;;;;;;28.80;99.90;;;;;;5058165;28;20003;-87
2024/03/18 11:18:18;;;;;;;;;;;27.50;99.90;;;;;;5043126;28;19948;-86
2024/03/18 11:20:47;;;;;;;;;;;26.60;99.90;;;;;;5038380;28;19940;-87
2024/03/18 11:23:19;;;;;;;;;;;27.20;99.90;;;;;;5034832;28;19919;-86
2024/03/18 11:25:50;;;;;;;;;;;28.20;99.90;;;;;;5044216;28;19913;-86
2024/03/18 11:28:16;;;;;;;;;;;29.40;99.90;;;;;;5028674;28;19920;-87
2024/03/18 11:30:42;;;;;;;;;;;30.10;99.90;;;;;;5059649;28;19908;-87
2024/03/18 11:33:09;;;;;;;;;;;30.60;99.90;;;;;;5032980;28;19923;-87
2024/03/18 11:35:38;;;;;;;;;;;31.10;99.90;;;;;;5027513;28;19920;-85
2024/03/18 11:38:09;;;;;;;;;;;30.50;99.90;;;;;;5047394;28;19920;-86
2024/03/18 11:40:39;;;;;;;;;;;29.90;99.90;;;;;;5053803;28;19909;-87
2024/03/18 11:43:08;;;;;;;;;;;29.60;99.90;;;;;;5042903;28;19975;-86
2024/03/18 11:45:36;;;;;;;;;;;28.30;99.90;;;;;;5052652;28;20378;-85
2024/03/18 11:48:05;;;;;;;;;;;27.10;99.90;;;;;;5045600;28;19912;-87
2024/03/18 11:50:34;;;;;;;;;;;26.20;99.90;;;;;;5035130;28;19924;-86
2024/03/18 11:53:03;;;;;;;;;;;26.00;99.90;;;;;;5047059;28;19971;-86
2024/03/18 11:55:32;;;;;;;;;;;26.90;99.90;;;;;;5042652;28;20370;-86
2024/03/18 11:57:58;;;;;;;;;;;26.10;99.90;;;;;;5029604;28;19919;-87
2024/03/18 12:00:24;;;;;;;;;;;25.50;99.90;;;;;;5048587;28;20033;-85
2024/03/18 12:02:49;;;;;;;;;;;24.80;99.90;;;;;;5028519;28;20008;-87
2024/03/18 12:05:15;;;;;;;;;;;24.10;99.90;;;;;;5040602;28;19958;-86
2024/03/18 12:07:41;;;;;;;;;;;23.40;99.90;;;;;;5058664;28;20008;-86
2024/03/18 12:10:07;;;;;;;;;;;23.50;99.90;;;;;;5034996;28;19913;-87
2024/03/18 12:12:37;;;;;;;;;;;23.40;99.90;;;;;;5049734;28;19967;-86
2024/03/18 12:15:12;;;;;;;;;;;23.70;99.90;;;;;;5025856;28;20393;-86
2024/03/18 12:17:38;;;;;;;;;;;23.60;99.90;;;;;;5035308;28;19920;-87
2024/03/18 12:20:35;;;;;;;;;;;23.30;99.90;;;;;;5034796;28;19908;-86
2024/03/18 12:23:03;;;;;;;;;;;22.90;99.90;;;;;;5034515;28;20391;-87
2024/03/18 12:31:09;;;;;;;;;;;22.50;99.90;;;;;;5072889;28;19959;-86
2024/03/18 12:33:36;;;;;;;;;;;23.00;99.90;;;;;;5033477;28;19924;-87
2024/03/18 12:36:10;;;;;;;;;;;23.20;99.90;;;;;;5025816;28;20283;-88
2024/03/18 12:38:36;;;;;;;;;;;23.10;99.90;;;;;;5036653;28;19917;-86
2024/03/18 12:41:28;;;;;;;;;;;23.00;99.90;;;;;;5048144;28;19913;-87
2024/03/18 12:43:58;;;;;;;;;;;23.20;99.90;;;;;;5048944;28;19917;-88
2024/03/18 12:46:27;;;;;;;;;;;23.40;99.90;;;;;;5021280;28;19917;-86
2024/03/18 12:48:53;;;;;;;;;;;23.10;99.90;;;;;;5021723;28;19917;-86
2024/03/18 12:51:20;;;;;;;;;;;23.30;99.90;;;;;;5020778;28;20386;-87
2024/03/18 12:53:49;;;;;;;;;;;23.60;99.90;;;;;;5035685;28;19978;-87
2024/03/18 12:56:17;;;;;;;;;;;23.70;99.90;;;;;;5027516;28;19995;-87
2024/03/18 12:58:44;;;;;;;;;;;23.90;99.90;;;;;;5019040;28;22007;-88
2024/03/18 13:01:12;;;;;;;;;;;24.70;99.90;;;;;;5023918;28;19913;-87
2024/03/18 13:03:47;;;;;;;;;;;25.10;99.90;;;;;;5024945;28;20456;-87
2024/03/18 13:06:12;;;;;;;;;;;25.60;99.90;;;;;;5022251;28;20401;-88
2024/03/18 13:08:43;;;;;;;;;;;25.70;99.90;;;;;;5017498;28;19953;-86
2024/03/18 13:11:27;;;;;;;;;;;25.80;99.90;;;;;;5042607;22;20439;-87
2024/03/18 13:14:21;;;;;;;;;;;26.10;99.90;;;;;;5021341;28;19921;-87
2024/03/18 13:16:56;;;;;;;;;;;26.10;99.90;;;;;;5018755;28;20004;-86
2024/03/18 13:22:11;;;;;;;;;;;26.20;99.90;;;;;;4993420;28;20349;-86
2024/03/18 13:24:36;;;;;;;;;;;26.10;99.90;;;;;;4999328;28;19985;-87
2024/03/18 13:27:02;;;;;;;;;;;26.10;99.90;;;;;;4999102;28;19913;-87
2024/03/18 13:29:31;;;;;;;;;;;26.30;99.90;;;;;;5007092;28;19953;-87
2024/03/18 13:31:57;;;;;;;;;;;26.40;99.90;;;;;;5016947;28;19918;-87
2024/03/18 13:34:22;;;;;;;;;;;26.20;99.90;;;;;;4998394;28;19959;-88
2024/03/18 13:36:48;;;;;;;;;;;26.10;99.90;;;;;;5007792;28;19918;-88
2024/03/18 13:39:14;;;;;;;;;;;25.70;99.90;;;;;;4999194;28;20379;-85
2024/03/18 13:41:40;;;;;;;;;;;25.10;99.90;;;;;;4998030;28;20294;-86
2024/03/18 13:44:06;;;;;;;;;;;24.70;99.90;;;;;;4997267;28;19989;-86
2024/03/18 13:46:32;;;;;;;;;;;24.20;99.90;;;;;;4999295;28;19936;-87
2024/03/18 13:48:58;;;;;;;;;;;23.80;99.90;;;;;;5002190;28;19922;-86
2024/03/18 13:51:23;;;;;;;;;;;23.70;99.90;;;;;;5000994;28;21570;-86
2024/03/18 13:53:51;;;;;;;;;;;24.10;99.90;;;;;;4999702;28;20023;-87
2024/03/18 13:56:17;;;;;;;;;;;24.10;99.90;;;;;;4997385;28;19925;-86
2024/03/18 13:58:42;;;;;;;;;;;24.00;99.90;;;;;;5001312;28;20314;-86
2024/03/18 14:01:12;;;;;;;;;;;23.60;99.90;;;;;;4999021;28;19910;-85
2024/03/18 14:03:38;;;;;;;;;;;23.30;99.90;;;;;;5002552;28;19932;-87
2024/03/18 14:06:04;;;;;;;;;;;23.20;99.90;;;;;;5004114;28;19909;-87
2024/03/18 14:08:30;;;;;;;;;;;23.30;99.90;;;;;;5008709;28;20411;-87
2024/03/18 14:10:55;;;;;;;;;;;23.40;99.90;;;;;;5003903;28;20345;-87
2024/03/18 14:13:21;;;;;;;;;;;23.60;99.90;;;;;;5001338;28;19941;-87
2024/03/18 14:15:47;;;;;;;;;;;23.80;99.90;;;;;;5008008;28;20426;-87
2024/03/18 14:18:12;;;;;;;;;;;23.90;99.90;;;;;;5006053;28;19937;-86
2024/03/18 14:20:39;;;;;;;;;;;24.00;99.90;;;;;;5006059;28;19929;-85
2024/03/18 14:23:05;;;;;;;;;;;24.20;99.90;;;;;;5009970;28;19917;-88
2024/03/18 14:25:30;;;;;;;;;;;24.30;99.90;;;;;;5003602;28;20514;-87
2024/03/18 14:28:05;;;;;;;;;;;24.40;99.90;;;;;;5016965;28;20313;-85